Time;durP1;ratioP1;P1;durP2;ratioP2;P2;SDS_P1;SDS_P2;PMS_P1;PMS_P2;Temp;Humidity;BMP_temperature;BMP_pressure;BME280_temperature;BME280_humidity;BME280_pressure;Samples;Min_cycle;Max_cycle;Signal;HPM_P1;HPM_P2
2022/06/26 04:05:10;;;;;;;2.40;2.20;;;18.70;99.90;;;;;;5092163;23;20493;-72
2022/06/26 04:07:36;;;;;;;2.47;2.27;;;18.70;99.90;;;;;;4993889;28;20429;-72
2022/06/26 04:10:01;;;;;;;2.77;2.57;;;18.70;99.90;;;;;;4991901;28;20757;-73
2022/06/26 04:12:27;;;;;;;2.23;2.13;;;18.80;99.90;;;;;;4992332;28;20207;-72
2022/06/26 04:14:53;;;;;;;3.03;2.73;;;19.00;99.90;;;;;;4993355;28;20201;-72
2022/06/26 04:17:18;;;;;;;2.80;1.93;;;19.40;99.90;;;;;;4993214;28;20164;-72
2022/06/26 04:19:44;;;;;;;2.70;2.50;;;19.90;99.90;;;;;;4993714;28;20183;-72
2022/06/26 04:22:09;;;;;;;2.57;2.37;;;20.40;99.90;;;;;;4993238;28;20171;-71
2022/06/26 04:24:35;;;;;;;2.20;2.10;;;20.80;99.90;;;;;;4993300;28;20203;-72
2022/06/26 04:27:01;;;;;;;2.10;1.90;;;21.00;99.90;;;;;;4993749;28;20186;-72
2022/06/26 04:29:27;;;;;;;2.20;2.10;;;21.10;99.90;;;;;;4993200;28;20210;-72
2022/06/26 04:31:53;;;;;;;2.00;1.90;;;21.10;99.90;;;;;;4992413;28;20171;-71
2022/06/26 04:34:19;;;;;;;2.20;2.07;;;21.00;99.90;;;;;;4992275;28;20917;-71
2022/06/26 04:36:44;;;;;;;2.47;2.27;;;20.90;99.90;;;;;;4996176;28;20199;-71
2022/06/26 04:39:10;;;;;;;2.97;1.73;;;20.80;99.90;;;;;;4993425;28;20992;-72
2022/06/26 04:41:36;;;;;;;3.13;2.43;;;20.70;99.90;;;;;;4993586;28;20251;-71
2022/06/26 04:44:06;;;;;;;2.40;2.30;;;20.50;99.90;;;;;;4993000;28;20199;-71
2022/06/26 04:46:32;;;;;;;2.27;2.17;;;20.40;99.90;;;;;;4993481;28;20242;-71
2022/06/26 04:48:58;;;;;;;3.00;2.70;;;20.40;99.90;;;;;;4993013;28;20898;-71
2022/06/26 04:51:24;;;;;;;2.27;2.07;;;20.30;99.90;;;;;;4993594;28;20493;-71
2022/06/26 04:53:50;;;;;;;3.43;3.13;;;20.20;99.90;;;;;;4992909;28;20435;-70
2022/06/26 04:56:15;;;;;;;2.30;2.20;;;20.10;99.90;;;;;;4993260;28;20592;-71
2022/06/26 04:58:41;;;;;;;3.17;2.87;;;20.10;99.90;;;;;;4996541;28;20226;-71
2022/06/26 05:01:07;;;;;;;2.77;2.57;;;20.10;99.90;;;;;;4996543;28;20642;-71
2022/06/26 05:03:33;;;;;;;2.60;2.50;;;20.00;99.90;;;;;;4996564;28;20236;-71
2022/06/26 05:05:59;;;;;;;2.87;2.67;;;20.00;99.90;;;;;;4996611;28;20417;-71
2022/06/26 05:08:25;;;;;;;4.97;2.67;;;20.00;99.90;;;;;;4996975;28;20258;-71
2022/06/26 05:10:50;;;;;;;2.77;2.57;;;19.90;99.90;;;;;;4996307;28;20176;-72
2022/06/26 05:13:16;;;;;;;2.70;2.50;;;19.90;99.90;;;;;;4996229;28;20630;-72
2022/06/26 05:15:42;;;;;;;2.47;2.37;;;19.90;99.90;;;;;;4996450;28;20423;-72
2022/06/26 05:18:08;;;;;;;2.90;2.70;;;19.90;99.90;;;;;;4996665;28;20183;-71
2022/06/26 05:20:34;;;;;;;2.07;1.97;;;19.90;99.90;;;;;;4996026;28;20175;-72
2022/06/26 05:22:59;;;;;;;2.57;2.37;;;20.00;99.90;;;;;;4995688;28;20513;-71
2022/06/26 05:25:25;;;;;;;2.43;2.33;;;20.10;99.90;;;;;;4996279;28;20192;-71
2022/06/26 05:27:50;;;;;;;2.60;2.40;;;20.10;99.90;;;;;;4996399;28;20226;-71
2022/06/26 05:30:16;;;;;;;2.30;2.20;;;20.20;99.90;;;;;;4995907;28;20259;-71
2022/06/26 05:32:42;;;;;;;2.23;2.13;;;20.20;99.90;;;;;;4995960;28;20708;-72
2022/06/26 05:35:08;;;;;;;3.03;2.57;;;20.20;99.90;;;;;;4996242;28;20191;-72
2022/06/26 05:37:34;;;;;;;2.20;2.00;;;20.20;99.90;;;;;;4996404;28;20620;-72
2022/06/26 05:39:59;;;;;;;2.33;2.23;;;20.20;99.90;;;;;;4995760;28;20435;-72
2022/06/26 05:42:25;;;;;;;2.20;2.10;;;20.20;99.90;;;;;;4995726;28;20639;-72
2022/06/26 05:44:50;;;;;;;2.33;2.03;;;20.30;99.90;;;;;;4995997;28;20226;-72
2022/06/26 05:47:16;;;;;;;2.47;2.27;;;20.40;99.90;;;;;;4996054;28;20182;-72
2022/06/26 05:49:42;;;;;;;2.00;1.90;;;20.50;99.90;;;;;;4995709;28;20199;-72
2022/06/26 05:52:07;;;;;;;2.33;2.23;;;20.60;99.90;;;;;;4995711;28;20176;-72
2022/06/26 05:54:33;;;;;;;2.40;2.30;;;20.60;99.90;;;;;;4995197;28;20203;-72
2022/06/26 05:56:59;;;;;;;2.57;2.40;;;20.70;99.90;;;;;;4996274;28;20164;-72
2022/06/26 05:59:24;;;;;;;1.80;1.70;;;20.80;99.90;;;;;;4995484;28;20203;-73
2022/06/26 06:01:50;;;;;;;2.00;1.90;;;20.90;99.90;;;;;;4995712;28;20633;-72
2022/06/26 06:04:15;;;;;;;4.07;2.13;;;21.10;99.90;;;;;;4995250;28;20661;-73
2022/06/26 06:06:41;;;;;;;1.90;1.80;;;21.30;99.90;;;;;;4995530;28;20188;-72
2022/06/26 06:09:07;;;;;;;2.20;2.00;;;21.40;99.90;;;;;;4994059;28;20203;-73
2022/06/26 06:11:33;;;;;;;2.60;2.40;;;21.50;99.90;;;;;;4994115;28;20181;-73
2022/06/26 06:13:59;;;;;;;2.20;2.00;;;21.60;99.90;;;;;;4995115;28;20176;-73
2022/06/26 06:16:24;;;;;;;2.17;2.07;;;21.70;99.90;;;;;;4995570;28;20185;-73
2022/06/26 06:18:50;;;;;;;2.20;2.10;;;21.80;99.90;;;;;;4995297;28;20411;-72
2022/06/26 06:21:17;;;;;;;2.03;1.93;;;21.90;99.90;;;;;;4995420;28;20181;-72
2022/06/26 06:23:43;;;;;;;2.10;2.00;;;21.80;99.90;;;;;;4994980;28;20220;-73
2022/06/26 06:26:12;;;;;;;2.40;2.20;;;21.90;99.90;;;;;;4995336;28;20437;-74
2022/06/26 06:28:38;;;;;;;2.70;2.50;;;21.90;99.90;;;;;;4994973;28;20177;-72
2022/06/26 06:31:04;;;;;;;3.97;2.43;;;22.00;99.90;;;;;;4993414;28;20440;-73
2022/06/26 06:33:29;;;;;;;3.13;2.83;;;21.90;99.90;;;;;;4993234;28;20552;-72
2022/06/26 06:35:55;;;;;;;1.93;1.83;;;21.90;99.90;;;;;;4995152;28;20195;-72
2022/06/26 06:38:25;;;;;;;2.93;2.37;;;21.90;99.90;;;;;;4995061;28;20178;-73
2022/06/26 06:40:51;;;;;;;3.27;3.07;;;21.90;99.90;;;;;;4994649;28;20183;-72
2022/06/26 06:43:16;;;;;;;2.10;1.97;;;21.90;99.90;;;;;;4994689;28;20412;-73
2022/06/26 06:45:42;;;;;;;2.00;1.90;;;21.90;99.90;;;;;;4994924;28;20433;-73
2022/06/26 06:48:08;;;;;;;2.43;2.23;;;21.90;99.90;;;;;;4995003;28;20718;-71
2022/06/26 06:50:34;;;;;;;4.40;2.10;;;22.00;99.90;;;;;;4994435;28;20679;-72
2022/06/26 06:53:00;;;;;;;3.10;1.83;;;22.10;99.90;;;;;;4994425;28;20729;-73
2022/06/26 06:55:26;;;;;;;2.20;2.00;;;22.30;99.90;;;;;;4994554;28;20408;-71
2022/06/26 06:57:52;;;;;;;2.27;2.17;;;22.50;99.90;;;;;;4994790;28;20166;-73
2022/06/26 07:00:17;;;;;;;2.10;1.90;;;22.90;99.90;;;;;;4993059;28;20195;-71
2022/06/26 07:02:43;;;;;;;1.60;1.50;;;23.10;99.90;;;;;;4994200;28;20981;-71
2022/06/26 07:05:09;;;;;;;1.70;1.60;;;23.20;99.90;;;;;;4994739;28;20199;-70
2022/06/26 07:07:37;;;;;;;2.87;2.57;;;23.30;99.90;;;;;;4994000;28;20191;-71
2022/06/26 07:10:03;;;;;;;1.90;1.80;;;23.50;99.90;;;;;;4981671;28;20520;-72
2022/06/26 07:12:29;;;;;;;2.40;2.20;;;23.70;99.90;;;;;;4984335;28;20439;-70
2022/06/26 07:14:55;;;;;;;3.27;3.00;;;23.90;99.90;;;;;;4994278;28;20417;-72
2022/06/26 07:17:24;;;;;;;1.97;1.80;;;24.20;99.90;;;;;;4994354;28;20175;-70
2022/06/26 07:19:50;;;;;;;1.80;1.70;;;24.30;99.90;;;;;;4993407;28;20179;-70
2022/06/26 07:22:15;;;;;;;2.03;1.93;;;24.20;99.90;;;;;;4993732;28;20484;-73
2022/06/26 07:24:41;;;;;;;1.63;1.53;;;24.30;99.90;;;;;;4994178;28;20206;-71
2022/06/26 07:27:07;;;;;;;1.60;1.50;;;24.50;99.90;;;;;;4994326;28;20194;-70
2022/06/26 07:29:33;;;;;;;1.70;1.60;;;24.80;98.30;;;;;;4993704;28;20666;-75
2022/06/26 07:31:58;;;;;;;4.93;1.80;;;25.20;98.00;;;;;;4994016;28;20183;-71
2022/06/26 07:34:25;;;;;;;1.83;1.70;;;25.80;97.60;;;;;;4990173;28;20192;-71
2022/06/26 07:36:52;;;;;;;1.77;1.67;;;26.50;97.40;;;;;;4991071;28;20210;-73
2022/06/26 07:39:20;;;;;;;3.33;2.40;;;27.40;96.40;;;;;;4986077;28;20397;-71
2022/06/26 07:41:47;;;;;;;2.30;1.63;;;28.30;94.50;;;;;;4993950;28;20415;-72
2022/06/26 07:44:14;;;;;;;1.87;0.90;;;29.30;91.00;;;;;;4993816;28;20438;-74
2022/06/26 07:46:40;;;;;;;1.40;1.30;;;30.40;86.00;;;;;;4994229;28;20418;-75
2022/06/26 07:49:07;;;;;;;1.80;1.70;;;31.70;83.00;;;;;;5008991;28;20618;-74
2022/06/26 07:51:35;;;;;;;2.20;2.00;;;33.10;81.60;;;;;;4994038;28;20422;-71
2022/06/26 07:54:01;;;;;;;1.73;1.63;;;34.50;76.30;;;;;;5005815;28;20833;-73
2022/06/26 07:56:27;;;;;;;2.80;2.70;;;35.60;71.30;;;;;;4993698;28;20458;-74
2022/06/26 07:58:53;;;;;;;1.70;1.60;;;36.10;67.80;;;;;;4994196;28;20426;-72
2022/06/26 08:01:19;;;;;;;1.60;1.50;;;36.20;64.40;;;;;;4994133;28;20990;-79
2022/06/26 08:03:45;;;;;;;1.50;1.50;;;36.30;65.50;;;;;;4994071;28;20509;-75
2022/06/26 08:06:11;;;;;;;1.30;1.30;;;36.40;62.40;;;;;;4993535;28;20190;-73
2022/06/26 08:08:37;;;;;;;1.67;1.57;;;36.70;62.10;;;;;;4992441;28;21000;-71
2022/06/26 08:11:03;;;;;;;1.60;1.50;;;37.00;61.40;;;;;;4993292;28;20183;-72
2022/06/26 08:13:29;;;;;;;1.53;1.30;;;37.10;59.20;;;;;;4993157;28;20447;-73
2022/06/26 08:15:54;;;;;;;1.43;1.40;;;37.10;58.80;;;;;;4992939;28;20478;-73
2022/06/26 08:18:20;;;;;;;1.33;1.33;;;37.40;57.50;;;;;;4993509;28;20724;-76
2022/06/26 08:20:46;;;;;;;1.37;1.33;;;37.50;57.30;;;;;;4993852;28;20533;-75
2022/06/26 08:23:11;;;;;;;1.30;1.30;;;37.50;56.80;;;;;;4993358;28;20207;-68
2022/06/26 08:25:37;;;;;;;1.47;1.40;;;37.40;56.60;;;;;;4993052;28;20203;-70
2022/06/26 08:28:03;;;;;;;1.40;1.40;;;37.70;57.00;;;;;;4993586;28;20172;-68
2022/06/26 08:30:29;;;;;;;1.20;1.20;;;37.80;57.10;;;;;;4993443;28;20199;-70
2022/06/26 08:32:58;;;;;;;1.40;1.40;;;37.50;57.10;;;;;;4995430;28;20214;-71
2022/06/26 08:35:25;;;;;;;1.27;1.27;;;37.60;56.30;;;;;;4996383;28;20258;-69
2022/06/26 08:37:50;;;;;;;1.30;1.30;;;37.40;55.70;;;;;;4995798;28;20419;-68
2022/06/26 08:40:16;;;;;;;1.30;1.30;;;37.50;56.60;;;;;;4997019;28;20425;-69
2022/06/26 08:42:43;;;;;;;1.30;1.30;;;37.40;54.90;;;;;;4996785;28;20172;-71
2022/06/26 08:45:09;;;;;;;1.10;1.10;;;36.80;56.10;;;;;;4996587;28;20235;-67
2022/06/26 08:47:39;;;;;;;1.10;1.10;;;36.70;56.60;;;;;;4997078;28;20493;-69
2022/06/26 08:50:07;;;;;;;1.37;1.37;;;36.60;57.60;;;;;;4997022;28;20462;-67
2022/06/26 08:52:33;;;;;;;1.40;1.40;;;37.10;56.80;;;;;;4996642;28;20789;-69
2022/06/26 08:55:00;;;;;;;1.30;1.30;;;37.70;56.20;;;;;;4996428;28;20450;-67
2022/06/26 08:57:26;;;;;;;1.70;1.60;;;38.30;55.20;;;;;;4996652;28;20450;-70
2022/06/26 08:59:51;;;;;;;1.73;1.63;;;38.10;54.30;;;;;;5012033;28;20411;-70
2022/06/26 09:02:17;;;;;;;1.53;1.47;;;37.90;54.70;;;;;;4996374;28;20174;-74
2022/06/26 09:04:43;;;;;;;1.20;1.20;;;37.70;54.30;;;;;;4996612;28;20196;-71
2022/06/26 09:07:08;;;;;;;1.33;1.33;;;38.00;55.30;;;;;;4996569;28;20192;-71
2022/06/26 09:09:38;;;;;;;1.80;1.80;;;38.20;53.80;;;;;;4996595;28;20195;-69
2022/06/26 09:12:04;;;;;;;1.50;1.50;;;38.40;55.50;;;;;;4996713;28;20179;-69
2022/06/26 09:14:30;;;;;;;1.50;1.50;;;38.60;55.60;;;;;;4995023;28;20445;-71
2022/06/26 09:16:57;;;;;;;1.97;1.87;;;38.60;54.20;;;;;;4996233;28;20418;-70
2022/06/26 09:19:26;;;;;;;1.60;1.60;;;38.90;53.70;;;;;;4996446;28;20175;-69
2022/06/26 09:21:52;;;;;;;2.27;2.10;;;38.60;54.00;;;;;;4996185;28;20406;-69
2022/06/26 09:24:21;;;;;;;1.60;1.50;;;38.70;54.70;;;;;;4995633;28;20443;-69
2022/06/26 09:27:14;;;;;;;1.60;1.60;;;38.90;54.20;;;;;;4996096;28;20484;-68
2022/06/26 09:29:40;;;;;;;2.10;2.00;;;38.90;53.30;;;;;;4995328;28;20540;-70
2022/06/26 09:32:12;;;;;;;1.60;1.60;;;39.10;53.30;;;;;;4993937;28;20414;-70
2022/06/26 09:34:42;;;;;;;1.90;1.80;;;39.30;52.20;;;;;;4993481;28;20450;-69
2022/06/26 09:37:10;;;;;;;1.70;1.70;;;39.40;52.40;;;;;;4994104;28;20459;-70
2022/06/26 09:39:35;;;;;;;1.90;1.80;;;39.30;52.40;;;;;;4993959;28;20407;-71
2022/06/26 09:42:19;;;;;;;1.40;1.40;;;39.10;52.00;;;;;;4993957;28;20829;-68
2022/06/26 09:44:46;;;;;;;1.57;1.57;;;39.00;51.90;;;;;;4993891;28;20234;-69
2022/06/26 09:47:26;;;;;;;1.80;1.70;;;38.50;53.90;;;;;;4995936;28;20410;-68
2022/06/26 09:49:53;;;;;;;1.90;1.80;;;38.60;53.70;;;;;;5011022;28;20465;-68
2022/06/26 09:52:24;;;;;;;2.13;2.07;;;38.50;54.00;;;;;;4995450;28;20407;-69
2022/06/26 09:54:51;;;;;;;1.70;1.70;;;38.70;54.00;;;;;;4995197;28;20573;-68
2022/06/26 09:57:17;;;;;;;5.30;1.87;;;39.00;52.90;;;;;;4995895;28;20438;-69
2022/06/26 09:59:43;;;;;;;1.63;1.63;;;38.90;53.10;;;;;;4994667;28;20415;-68
2022/06/26 10:07:52;;;;;;;2.10;2.00;;;38.80;52.50;;;;;;4995535;28;20484;-68
2022/06/26 10:10:22;;;;;;;1.57;1.57;;;38.50;52.50;;;;;;4995625;28;20461;-68
2022/06/26 10:12:52;;;;;;;1.70;1.60;;;38.60;53.00;;;;;;4995042;28;20414;-69
2022/06/26 10:15:19;;;;;;;1.77;1.67;;;38.60;53.60;;;;;;4994873;28;20453;-68
2022/06/26 10:18:23;;;;;;;1.50;1.50;;;38.50;52.60;;;;;;4995447;28;20414;-69
2022/06/26 10:20:49;;;;;;;1.63;1.57;;;38.80;53.00;;;;;;4995355;28;20493;-69
2022/06/26 10:23:36;;;;;;;1.60;1.60;;;38.70;52.90;;;;;;4994146;28;20443;-68
2022/06/26 10:26:15;;;;;;;1.50;1.50;;;38.30;52.60;;;;;;4993328;28;20449;-69
2022/06/26 10:29:02;;;;;;;1.77;1.70;;;37.90;52.70;;;;;;4995282;28;20406;-68
2022/06/26 10:31:47;;;;;;;1.50;1.40;;;37.60;53.60;;;;;;4995208;28;20405;-68
2022/06/26 10:34:16;;;;;;;1.20;1.20;;;37.30;53.90;;;;;;4994578;28;20477;-68
2022/06/26 10:36:42;;;;;;;1.50;1.50;;;37.10;53.60;;;;;;4994209;28;20407;-68
2022/06/26 10:39:08;;;;;;;1.30;1.30;;;36.90;53.30;;;;;;4995285;28;20407;-68
2022/06/26 10:44:52;;;;;;;1.70;1.60;;;36.30;53.90;;;;;;4994683;28;20202;-68
2022/06/26 10:47:17;;;;;;;1.43;1.33;;;35.70;55.60;;;;;;4980359;28;20427;-67
2022/06/26 10:50:01;;;;;;;1.37;1.37;;;35.60;55.90;;;;;;4994514;28;20460;-68
2022/06/26 10:52:28;;;;;;;1.60;1.50;;;35.60;55.50;;;;;;4994296;28;20179;-68
2022/06/26 10:54:55;;;;;;;5.50;1.60;;;35.60;55.50;;;;;;4993675;28;20438;-69
2022/06/26 10:57:50;;;;;;;1.30;1.30;;;35.70;57.00;;;;;;4994052;28;20935;-68
2022/06/26 11:00:16;;;;;;;1.60;1.60;;;35.70;55.90;;;;;;4985428;28;20431;-68
2022/06/26 11:02:46;;;;;;;1.20;1.20;;;35.10;56.50;;;;;;4994088;28;20506;-70
2022/06/26 11:05:13;;;;;;;1.30;1.30;;;35.10;56.90;;;;;;4994312;28;20434;-68
2022/06/26 11:07:47;;;;;;;1.60;1.50;;;35.10;55.60;;;;;;4994401;28;20500;-69
2022/06/26 11:10:15;;;;;;;1.23;1.13;;;34.50;56.40;;;;;;4994339;28;20520;-68
2022/06/26 11:12:42;;;;;;;1.40;1.40;;;34.20;59.40;;;;;;4993991;28;20402;-69
2022/06/26 11:15:32;;;;;;;1.60;1.50;;;34.30;59.90;;;;;;4993968;28;20928;-68
2022/06/26 11:18:00;;;;;;;1.30;1.30;;;34.10;61.10;;;;;;5009554;28;20781;-68
2022/06/26 11:20:46;;;;;;;1.30;1.20;;;33.30;61.90;;;;;;4994341;28;20407;-68
2022/06/26 11:23:26;;;;;;;1.20;1.20;;;32.80;63.20;;;;;;4994174;28;20428;-68
2022/06/26 11:25:55;;;;;;;1.53;1.47;;;32.10;65.40;;;;;;4992025;28;20976;-68
2022/06/26 11:28:26;;;;;;;3.00;1.23;;;31.50;65.80;;;;;;4994115;28;20381;-67
2022/06/26 11:30:52;;;;;;;1.17;1.17;;;31.40;69.30;;;;;;4994351;28;20516;-70
2022/06/26 11:33:26;;;;;;;1.47;1.37;;;31.20;67.00;;;;;;4993754;28;20468;-68
2022/06/26 11:35:53;;;;;;;1.57;1.27;;;31.20;66.00;;;;;;5002694;28;20597;-69
2022/06/26 11:38:20;;;;;;;1.20;1.10;;;31.10;67.50;;;;;;4974494;28;20405;-68
2022/06/26 11:40:47;;;;;;;1.50;1.40;;;31.10;67.60;;;;;;4989022;28;20402;-69
2022/06/26 11:43:13;;;;;;;3.50;1.10;;;31.00;67.90;;;;;;4974370;28;20379;-68
2022/06/26 11:45:43;;;;;;;1.90;1.77;;;31.10;69.90;;;;;;4974637;28;20432;-68
2022/06/26 11:48:13;;;;;;;1.60;1.50;;;31.00;68.50;;;;;;4974573;28;20387;-68
2022/06/26 11:50:39;;;;;;;1.67;1.60;;;31.00;68.20;;;;;;4990832;28;20545;-69
2022/06/26 11:53:06;;;;;;;1.87;1.77;;;30.80;69.30;;;;;;4993821;28;20493;-69
2022/06/26 11:55:33;;;;;;;1.50;1.40;;;30.80;71.50;;;;;;4993648;28;20427;-68
2022/06/26 11:58:02;;;;;;;1.17;1.17;;;30.80;70.50;;;;;;4993868;28;20472;-68
2022/06/26 12:00:28;;;;;;;1.77;1.67;;;30.70;67.50;;;;;;4993683;28;20402;-68
2022/06/26 12:02:54;;;;;;;1.07;1.07;;;30.60;71.10;;;;;;4993660;28;20386;-69
2022/06/26 12:05:22;;;;;;;2.00;1.10;;;30.50;68.00;;;;;;4993863;28;20451;-68
2022/06/26 12:07:50;;;;;;;1.63;1.53;;;30.20;71.70;;;;;;4995945;28;20193;-67
2022/06/26 12:10:36;;;;;;;1.70;1.60;;;29.90;72.40;;;;;;4996235;28;20429;-68
2022/06/26 12:13:03;;;;;;;1.20;1.20;;;29.70;72.60;;;;;;4997703;28;20407;-69
2022/06/26 12:15:31;;;;;;;1.53;1.43;;;29.50;72.60;;;;;;4997442;28;20438;-69
2022/06/26 12:17:59;;;;;;;1.10;1.10;;;29.40;73.30;;;;;;4997766;28;20469;-68
2022/06/26 12:20:25;;;;;;;1.23;1.20;;;29.20;71.90;;;;;;4997644;28;20420;-69
2022/06/26 12:22:54;;;;;;;2.50;2.30;;;29.00;72.50;;;;;;4997268;28;20389;-68
2022/06/26 12:25:27;;;;;;;1.83;1.73;;;28.90;74.60;;;;;;4995859;28;20827;-68
2022/06/26 12:27:53;;;;;;;1.43;1.33;;;28.70;76.00;;;;;;4997615;28;20437;-68
2022/06/26 12:30:21;;;;;;;1.23;1.13;;;28.70;74.70;;;;;;5012529;28;20936;-68
2022/06/26 12:32:47;;;;;;;1.57;1.40;;;28.70;74.40;;;;;;4997105;28;20172;-68
2022/06/26 12:35:12;;;;;;;2.00;1.90;;;28.60;76.60;;;;;;4997310;28;20973;-69
2022/06/26 12:37:38;;;;;;;1.30;1.30;;;28.60;76.70;;;;;;4997362;28;20179;-68
2022/06/26 12:40:06;;;;;;;1.43;1.30;;;28.70;77.10;;;;;;4997470;28;20222;-68
2022/06/26 12:42:32;;;;;;;1.10;1.10;;;28.70;75.30;;;;;;4996912;28;20541;-67
2022/06/26 12:44:57;;;;;;;1.80;1.70;;;28.70;74.80;;;;;;4995587;28;20460;-69
2022/06/26 12:47:23;;;;;;;1.10;1.10;;;28.70;76.10;;;;;;4997310;28;20384;-69
2022/06/26 12:49:49;;;;;;;1.37;1.27;;;28.70;75.80;;;;;;4996946;28;20597;-66
2022/06/26 12:52:16;;;;;;;1.40;1.40;;;28.70;75.10;;;;;;4996443;28;20380;-71
2022/06/26 12:54:41;;;;;;;1.10;1.10;;;28.70;78.60;;;;;;4996787;28;20573;-74
2022/06/26 12:57:07;;;;;;;1.67;1.57;;;28.80;76.50;;;;;;4997110;28;20403;-72
2022/06/26 12:59:33;;;;;;;1.30;1.20;;;28.60;74.30;;;;;;4996786;28;20700;-72
2022/06/26 13:01:58;;;;;;;2.70;1.33;;;28.50;75.70;;;;;;4996676;28;20537;-73
2022/06/26 13:04:24;;;;;;;1.43;1.43;;;28.40;77.10;;;;;;4995988;28;20279;-72
2022/06/26 13:06:50;;;;;;;1.40;1.27;;;28.40;78.20;;;;;;4996570;28;20186;-73
2022/06/26 13:09:16;;;;;;;1.23;1.23;;;28.40;75.20;;;;;;4996795;28;20456;-72
2022/06/26 13:11:43;;;;;;;1.70;1.60;;;28.30;75.00;;;;;;4996791;28;20166;-73
2022/06/26 13:14:09;;;;;;;1.40;1.37;;;28.20;75.10;;;;;;4996102;28;20409;-74
2022/06/26 13:16:37;;;;;;;2.03;1.93;;;28.20;77.20;;;;;;4996405;28;20466;-71
2022/06/26 13:19:03;;;;;;;1.20;1.20;;;28.30;75.60;;;;;;4996069;28;20414;-73
2022/06/26 13:21:29;;;;;;;1.30;1.30;;;28.30;77.80;;;;;;4996731;28;20904;-71
2022/06/26 13:23:55;;;;;;;1.50;1.40;;;28.30;76.60;;;;;;4996304;28;20379;-72
2022/06/26 13:26:21;;;;;;;1.30;1.20;;;28.30;76.50;;;;;;4996411;28;20186;-68
2022/06/26 13:28:47;;;;;;;1.30;1.20;;;28.40;78.30;;;;;;4995282;28;20483;-72
2022/06/26 13:31:12;;;;;;;1.37;1.27;;;28.40;76.60;;;;;;4996434;28;20190;-71
2022/06/26 13:33:38;;;;;;;2.00;1.13;;;28.40;76.00;;;;;;4994658;28;20670;-70
2022/06/26 13:36:04;;;;;;;1.40;1.40;;;28.30;74.70;;;;;;4994569;28;20203;-70
2022/06/26 13:38:30;;;;;;;1.00;1.00;;;28.20;76.10;;;;;;4996044;28;20182;-71
2022/06/26 13:40:56;;;;;;;1.47;1.37;;;28.20;75.80;;;;;;4996308;28;20390;-73
2022/06/26 13:43:21;;;;;;;1.17;1.17;;;28.20;76.00;;;;;;4990820;28;20688;-69
2022/06/26 13:45:47;;;;;;;1.27;1.27;;;28.20;75.90;;;;;;4985424;28;20193;-73
2022/06/26 13:48:13;;;;;;;1.70;1.67;;;28.20;76.30;;;;;;4995815;28;20235;-72
2022/06/26 13:50:39;;;;;;;1.40;1.30;;;28.20;77.10;;;;;;4996050;28;20205;-73
2022/06/26 13:53:05;;;;;;;1.53;1.53;;;28.20;77.50;;;;;;4988003;28;20435;-71
2022/06/26 13:55:30;;;;;;;1.77;1.67;;;28.30;77.80;;;;;;4984136;28;20220;-73
2022/06/26 13:57:57;;;;;;;1.60;1.50;;;28.30;77.70;;;;;;4983550;28;20172;-72
2022/06/26 14:00:23;;;;;;;1.30;1.30;;;28.40;78.10;;;;;;4985384;28;20178;-73
2022/06/26 14:02:48;;;;;;;1.70;1.60;;;28.50;78.60;;;;;;4983029;28;20908;-71
2022/06/26 14:05:14;;;;;;;1.80;1.70;;;28.50;79.50;;;;;;4984744;28;20432;-70
2022/06/26 14:07:40;;;;;;;1.50;1.40;;;28.60;78.60;;;;;;4984736;28;20190;-71
2022/06/26 14:10:06;;;;;;;1.63;1.53;;;28.60;78.10;;;;;;4983350;28;20313;-70
2022/06/26 14:12:31;;;;;;;1.53;1.50;;;28.60;76.70;;;;;;4984954;28;20253;-69
2022/06/26 14:14:57;;;;;;;1.70;1.60;;;28.60;77.20;;;;;;4983834;28;20497;-71
2022/06/26 14:17:23;;;;;;;1.63;1.53;;;28.60;78.40;;;;;;4983748;28;20214;-70
2022/06/26 14:19:48;;;;;;;1.93;1.83;;;28.50;78.60;;;;;;4989291;28;20187;-69
2022/06/26 14:27:43;;;;;;;1.43;1.43;;;28.50;79.00;;;;;;4984505;28;20550;-72
2022/06/26 14:30:09;;;;;;;1.53;1.43;;;28.40;77.00;;;;;;4982090;28;20444;-73
2022/06/26 14:32:36;;;;;;;1.47;1.47;;;28.40;77.60;;;;;;4994883;28;20790;-74
2022/06/26 14:35:02;;;;;;;1.40;1.40;;;28.40;78.40;;;;;;4992663;28;20448;-71
2022/06/26 14:37:29;;;;;;;1.30;1.20;;;28.30;79.90;;;;;;4979032;28;20395;-70
2022/06/26 14:39:54;;;;;;;1.27;1.27;;;28.40;79.30;;;;;;4977840;28;20418;-73
2022/06/26 14:42:20;;;;;;;2.00;1.90;;;28.40;78.50;;;;;;4980062;28;21233;-72
2022/06/26 14:44:46;;;;;;;4.60;1.80;;;28.40;77.60;;;;;;4984753;28;20200;-72
2022/06/26 14:47:11;;;;;;;1.47;1.37;;;28.30;77.50;;;;;;4988753;28;20216;-71
2022/06/26 14:49:39;;;;;;;4.37;1.93;;;28.30;79.10;;;;;;4994658;28;20197;-71
2022/06/26 14:52:06;;;;;;;1.67;1.57;;;28.30;79.00;;;;;;4994893;28;20189;-71
2022/06/26 14:54:32;;;;;;;1.20;1.17;;;28.30;79.70;;;;;;4988006;28;20521;-70
2022/06/26 14:56:59;;;;;;;1.80;1.27;;;28.30;81.60;;;;;;4975380;28;20942;-69
2022/06/26 14:59:25;;;;;;;1.13;1.13;;;28.40;80.60;;;;;;4975390;28;20385;-71
2022/06/26 15:01:50;;;;;;;1.63;1.50;;;28.40;79.20;;;;;;4975987;28;20387;-73
2022/06/26 15:04:16;;;;;;;1.30;1.30;;;28.40;78.30;;;;;;4989049;28;20425;-74
2022/06/26 15:06:42;;;;;;;2.00;1.90;;;28.40;78.30;;;;;;4973877;28;20201;-69
2022/06/26 15:09:07;;;;;;;1.40;1.40;;;28.40;78.30;;;;;;4979389;28;20196;-72
2022/06/26 15:11:33;;;;;;;1.70;1.60;;;28.40;78.70;;;;;;4983132;28;20177;-73
2022/06/26 15:13:59;;;;;;;1.47;1.37;;;28.40;78.50;;;;;;4978709;28;20247;-73
2022/06/26 15:16:24;;;;;;;1.73;1.47;;;28.30;78.30;;;;;;4986338;28;20204;-72
2022/06/26 15:18:50;;;;;;;1.60;1.50;;;28.20;78.60;;;;;;4994321;28;20168;-76
2022/06/26 15:21:16;;;;;;;1.17;1.13;;;28.30;78.40;;;;;;4988078;28;20626;-75
2022/06/26 15:23:41;;;;;;;1.93;1.83;;;28.20;79.20;;;;;;4982762;28;20746;-73
2022/06/26 15:26:07;;;;;;;1.67;1.57;;;28.20;80.20;;;;;;4981722;28;20255;-73
2022/06/26 15:28:33;;;;;;;1.40;1.40;;;28.20;81.40;;;;;;4982204;28;20172;-73
2022/06/26 15:30:58;;;;;;;2.40;1.40;;;28.30;80.30;;;;;;4977098;28;20209;-75
2022/06/26 15:33:24;;;;;;;1.77;1.67;;;28.30;81.10;;;;;;4973921;28;20571;-73
2022/06/26 15:35:50;;;;;;;1.73;1.63;;;28.30;82.60;;;;;;4992607;28;20197;-75
2022/06/26 15:38:15;;;;;;;1.70;1.60;;;28.30;80.80;;;;;;4992818;28;20252;-72
2022/06/26 15:40:41;;;;;;;1.43;1.43;;;28.30;80.80;;;;;;4993256;28;20180;-77
2022/06/26 15:43:07;;;;;;;1.57;1.57;;;28.40;81.60;;;;;;4993630;28;20256;-71
2022/06/26 15:45:32;;;;;;;1.70;1.60;;;28.30;79.20;;;;;;4993752;28;20227;-75
2022/06/26 15:47:58;;;;;;;1.47;1.37;;;28.30;80.10;;;;;;4993988;28;20648;-72
2022/06/26 15:50:24;;;;;;;2.67;1.50;;;28.30;80.20;;;;;;4994049;28;20719;-73
2022/06/26 15:52:49;;;;;;;1.90;1.63;;;28.20;79.80;;;;;;4993659;28;20178;-72
2022/06/26 15:55:15;;;;;;;1.43;1.33;;;28.20;81.40;;;;;;4993625;28;20204;-74
2022/06/26 15:57:41;;;;;;;1.37;1.33;;;28.30;80.40;;;;;;4994051;28;20169;-77
2022/06/26 16:00:08;;;;;;;1.80;1.70;;;28.20;81.50;;;;;;4992751;28;20204;-71
2022/06/26 16:02:33;;;;;;;2.23;1.83;;;28.20;80.60;;;;;;4993554;28;20173;-76
2022/06/26 16:05:00;;;;;;;1.93;1.83;;;28.20;79.50;;;;;;4993387;28;20456;-71
2022/06/26 16:07:26;;;;;;;1.87;1.77;;;28.20;80.60;;;;;;4992394;28;20678;-74
2022/06/26 16:09:52;;;;;;;1.50;1.50;;;28.20;80.00;;;;;;4993779;28;20459;-71
2022/06/26 16:12:19;;;;;;;1.20;1.20;;;28.10;79.90;;;;;;4993493;28;20755;-74
2022/06/26 16:14:45;;;;;;;1.40;1.37;;;28.10;80.30;;;;;;4991516;28;20448;-74
2022/06/26 16:17:11;;;;;;;1.70;1.60;;;28.10;81.10;;;;;;4990884;28;20386;-72
2022/06/26 16:19:39;;;;;;;1.60;1.50;;;28.10;80.20;;;;;;4993478;28;20202;-72
2022/06/26 16:27:34;;;;;;;1.90;1.80;;;28.10;80.30;;;;;;4983302;28;20798;-75
2022/06/26 16:29:59;;;;;;;1.43;1.43;;;28.20;80.50;;;;;;4979857;28;20455;-73
2022/06/26 16:32:25;;;;;;;1.70;1.60;;;28.20;80.20;;;;;;4993197;28;20823;-75
2022/06/26 16:34:51;;;;;;;2.13;1.67;;;28.20;80.70;;;;;;4993452;28;20601;-71
2022/06/26 16:37:17;;;;;;;1.70;1.60;;;28.20;80.60;;;;;;4984505;28;20400;-76
2022/06/26 16:39:43;;;;;;;1.80;1.70;;;28.20;80.90;;;;;;4974274;28;20500;-71
2022/06/26 16:42:09;;;;;;;1.97;1.87;;;28.30;81.00;;;;;;4973869;28;20384;-72
2022/06/26 16:44:35;;;;;;;1.90;1.80;;;28.40;80.10;;;;;;4989358;28;20454;-76
2022/06/26 16:47:00;;;;;;;1.90;1.80;;;28.40;79.90;;;;;;4993625;28;20446;-71
2022/06/26 16:49:26;;;;;;;1.90;1.80;;;28.40;79.80;;;;;;4993203;28;20201;-72
2022/06/26 16:51:52;;;;;;;1.93;1.83;;;28.40;79.50;;;;;;4992750;28;20186;-72
2022/06/26 16:54:17;;;;;;;1.10;1.10;;;28.40;79.80;;;;;;4995238;28;20667;-74
2022/06/26 16:56:44;;;;;;;1.83;1.73;;;28.50;80.90;;;;;;4997144;28;20182;-71
2022/06/26 16:59:09;;;;;;;2.10;2.00;;;28.60;80.70;;;;;;5012088;28;20181;-72
2022/06/26 17:01:35;;;;;;;1.90;1.80;;;28.60;78.90;;;;;;4996829;28;20436;-72
2022/06/26 17:04:01;;;;;;;1.87;1.77;;;28.50;80.10;;;;;;4996257;28;20178;-69
2022/06/26 17:06:27;;;;;;;4.00;1.77;;;28.50;80.50;;;;;;4996627;28;20189;-71
2022/06/26 17:08:53;;;;;;;2.10;2.00;;;28.60;82.30;;;;;;4989036;28;20939;-70
2022/06/26 17:11:18;;;;;;;2.00;1.90;;;28.60;83.10;;;;;;4977235;28;20179;-70